Sault Ste. Marie, MI

03:28 AM EST del 21 Dicembre 2014 (GMT -0500)
Sault Ste Marie Municipal / Sanderson Field | Change Station
CLOSE
Current Station
Aeroporto
Location: Sault Ste Marie,
Altitudine: 715 ft
Stazioni meteo nelle vicinanze

Alt. 715 ft 46.48 °N, 84.36 °W | Updated 33 minutes ago

Overcast
Coperto
24 °F
Sembra 24 °F
N
0
Vento Variabile Vento da Nord

Oggi
Massima -- | Minima -- °F
--% Possibilità di precip.
Ieri
Massima -- | Minima -- °F
Precip. -- in
8:18 AM 4:52 PM
Luna calante, 1% visible
Pressione 30.26 in
Visibilità 10.0 miglia
Nuvole Coperto 2600 ft
Punto di rugiada 20 °F
Umidità 84%
Piovosità 0.00 in
Spessore del manto nevoso Non disponibile.
Raggi UV 0 fuori da 12
Polline .10 fuori da 12
Qualità dell'aria Non disponibile.
Flu Activity Non disponibile.
METAR KANJ 210755Z AUTO 00000KT 10SM OVC026 M04/M07 A3023 RMK AO2 SLP247 T10441067

More Conditions Fewer Conditions

Pressione 30.26 in
Visibilità 10.0 miglia
Nuvole Coperto 2600 ft
Punto di rugiada 20 °F
Umidità 84%
Piovosità 0.00 in
Spessore del manto nevoso Non disponibile.
Raggi UV 0 fuori da 12
Polline .10 fuori da 12
Qualità dell'aria Non disponibile.
Flu Activity Non disponibile.
METAR KANJ 210755Z AUTO 00000KT 10SM OVC026 M04/M07 A3023 RMK AO2 SLP247 T10441067

More Conditions Fewer Conditions

Nowcast | as of 3:00 am EST on December 21, 2014

At 4 am...cloudy. Temperature 22. Light winds. At 6 am...cloudy. Temperature 23. Southeast winds 5 mph. At 8 am...cloudy. Temperature 24. Southeast winds 5 mph. At 10 am...cloudy. Temperature 25. Southeast winds 5 mph.

×

10-Day Weather Forecast

Almanac

Astronomia

Dec. 21, 2014 Alba Tramonto
Ora attuale
Crepuscolo civile
Crepuscolo nautico
Crepuscolo astronomico
Luna
Estensione della luce visibile
Lunghezza del giorno
Tomorrow will be .
, % of the Moon is Illuminated

Gli estremi di oggi

State Highs State Lows

Community

WunderPhotos

Upload Photos

1,779,362 foto caricate!

WunderBlogs® & News

Nearby

Qualità dell'aria

  Qualità dell'aria Indice AQ Inquinante
Not available.

Profondità neve

Stazione Profondità Altitudine

Attività sismica

Città  Distanza Mag. Data & Ora
Minimo Magnitudo Mostrato è 2.5.

Temperature delle acque costiere

Località Temperatura

Stazioni meteo nelle vicinanze